createdAt,value
2019-03-04T00:01:12.161Z,17.90
2019-03-04T00:03:44.664Z,17.90
2019-03-04T00:06:17.045Z,18.00
2019-03-04T00:08:49.455Z,18.00
2019-03-04T00:11:21.819Z,18.00
2019-03-04T00:13:54.237Z,18.00
2019-03-04T00:16:26.607Z,18.00
2019-03-04T00:18:59.082Z,18.00
2019-03-04T00:21:31.545Z,18.10
2019-03-04T00:24:03.957Z,18.10
2019-03-04T00:26:36.340Z,18.00
2019-03-04T00:29:08.740Z,18.10
2019-03-04T00:31:41.110Z,18.10
2019-03-04T00:34:13.515Z,18.10
2019-03-04T00:36:45.887Z,18.10
2019-03-04T00:39:20.423Z,18.10
2019-03-04T00:41:52.798Z,18.10
2019-03-04T00:44:25.280Z,18.20
2019-03-04T00:46:57.569Z,18.20
2019-03-04T00:49:29.967Z,18.20
2019-03-04T00:52:02.373Z,18.20
2019-03-04T00:54:34.780Z,18.20
2019-03-04T00:57:07.443Z,18.30
2019-03-04T00:59:39.837Z,18.30
2019-03-04T01:02:12.150Z,18.30
2019-03-04T01:04:44.548Z,18.30
2019-03-04T01:07:16.929Z,18.30
2019-03-04T01:09:49.333Z,18.30
2019-03-04T01:12:21.658Z,18.40
2019-03-04T01:14:54.819Z,18.40
2019-03-04T01:17:27.254Z,18.40
2019-03-04T01:19:59.632Z,18.40
2019-03-04T01:22:32.028Z,18.40
2019-03-04T01:25:05.427Z,18.40
2019-03-04T01:27:37.869Z,18.50
2019-03-04T01:30:14.366Z,18.50
2019-03-04T01:32:46.742Z,18.50
2019-03-04T01:35:19.195Z,18.50
2019-03-04T01:37:51.578Z,18.50
2019-03-04T01:40:24.037Z,18.50
2019-03-04T01:42:56.443Z,18.50
2019-03-04T01:45:28.896Z,18.50
2019-03-04T01:48:01.293Z,18.50
2019-03-04T01:50:33.714Z,18.50
2019-03-04T01:53:06.107Z,18.50
2019-03-04T01:55:38.507Z,18.50
2019-03-04T01:58:10.931Z,18.50
2019-03-04T02:00:43.326Z,18.60
2019-03-04T02:03:15.856Z,18.60
2019-03-04T02:05:48.177Z,18.60
2019-03-04T02:08:20.549Z,18.60
2019-03-04T02:10:52.948Z,18.60
2019-03-04T02:13:25.323Z,18.60
2019-03-04T02:15:57.750Z,18.50
2019-03-04T02:18:30.230Z,18.50
2019-03-04T02:21:02.682Z,18.50
2019-03-04T02:23:35.095Z,18.50
2019-03-04T02:26:23.817Z,18.50
2019-03-04T02:28:56.650Z,18.60
2019-03-04T02:31:29.045Z,18.60
2019-03-04T02:34:01.458Z,18.60
2019-03-04T02:36:33.954Z,18.60
2019-03-04T02:39:06.804Z,18.60
2019-03-04T02:41:40.021Z,18.60
2019-03-04T02:44:12.392Z,18.60
2019-03-04T02:46:44.801Z,18.60
2019-03-04T02:49:17.192Z,18.60
2019-03-04T02:51:49.697Z,18.60
2019-03-04T02:54:22.182Z,18.60
2019-03-04T02:56:57.811Z,18.60
2019-03-04T02:59:30.270Z,18.50
2019-03-04T03:02:04.680Z,18.50
2019-03-04T03:04:37.730Z,18.50
2019-03-04T03:07:10.603Z,18.50
2019-03-04T03:09:43.203Z,18.50
2019-03-04T03:12:15.620Z,18.50
2019-03-04T03:14:50.353Z,18.50
2019-03-04T03:17:24.311Z,18.50
2019-03-04T03:19:56.778Z,18.50
2019-03-04T03:22:29.171Z,18.50
2019-03-04T03:25:01.556Z,18.50
2019-03-04T03:27:34.106Z,18.50
2019-03-04T03:30:08.935Z,18.50
2019-03-04T03:32:41.441Z,18.40
2019-03-04T03:35:14.923Z,18.40
2019-03-04T03:37:47.285Z,18.40
2019-03-04T03:40:19.639Z,18.40
2019-03-04T03:42:52.026Z,18.40
2019-03-04T03:45:24.412Z,18.40
2019-03-04T03:47:56.812Z,18.40
2019-03-04T03:50:29.210Z,18.40
2019-03-04T03:53:01.617Z,18.40
2019-03-04T03:55:34.006Z,18.40
2019-03-04T03:58:06.487Z,18.40
2019-03-04T04:00:38.864Z,18.40
2019-03-04T04:03:11.259Z,18.40
2019-03-04T04:05:43.674Z,18.40
2019-03-04T04:08:16.069Z,18.30
2019-03-04T04:10:48.535Z,18.30
2019-03-04T04:13:21.035Z,18.30
2019-03-04T04:15:53.580Z,18.30
2019-03-04T04:18:25.986Z,18.30
2019-03-04T04:20:58.432Z,18.30
2019-03-04T04:23:30.836Z,18.30
2019-03-04T04:26:04.865Z,18.30
2019-03-04T04:28:37.261Z,18.30
2019-03-04T04:31:09.646Z,18.30
2019-03-04T04:33:42.062Z,18.30
2019-03-04T04:36:14.433Z,18.20
2019-03-04T04:38:46.819Z,18.20
2019-03-04T04:41:19.208Z,18.20
2019-03-04T04:43:51.652Z,18.20
2019-03-04T04:46:48.615Z,18.20
2019-03-04T04:49:21.382Z,18.20
2019-03-04T04:51:53.791Z,18.20
2019-03-04T04:54:26.188Z,18.20
2019-03-04T04:56:58.560Z,18.20
2019-03-04T04:59:30.954Z,18.20
2019-03-04T05:02:03.324Z,18.20
2019-03-04T05:04:35.723Z,18.20
2019-03-04T05:07:08.034Z,18.20
2019-03-04T05:09:40.364Z,18.20
2019-03-04T05:12:13.018Z,18.30
2019-03-04T05:14:45.425Z,18.30
2019-03-04T05:17:17.871Z,18.30
2019-03-04T05:19:52.602Z,18.30
2019-03-04T05:22:24.970Z,18.30
2019-03-04T05:24:57.380Z,18.30
2019-03-04T05:27:29.751Z,18.30
2019-03-04T05:30:02.151Z,18.30
2019-03-04T05:32:34.590Z,18.30
2019-03-04T05:35:07.092Z,18.30
2019-03-04T05:37:39.463Z,18.30
2019-03-04T05:40:14.893Z,18.30
2019-03-04T05:42:47.263Z,18.30
2019-03-04T05:45:19.675Z,18.30
2019-03-04T05:47:52.049Z,18.30
2019-03-04T05:50:24.448Z,18.30
2019-03-04T05:52:56.816Z,18.30
2019-03-04T05:55:29.209Z,18.30
2019-03-04T05:58:01.577Z,18.30
2019-03-04T06:00:38.878Z,18.30
2019-03-04T06:03:12.378Z,18.30
2019-03-04T06:05:44.866Z,18.30
2019-03-04T06:08:17.243Z,18.30
2019-03-04T06:10:49.653Z,18.30
2019-03-04T06:13:22.050Z,18.30
2019-03-04T06:15:54.439Z,18.30
2019-03-04T06:18:26.911Z,18.30
2019-03-04T06:20:59.243Z,18.30
2019-03-04T06:23:31.687Z,18.30
2019-03-04T06:26:04.122Z,18.30
2019-03-04T06:28:36.611Z,18.30
2019-03-04T06:31:09.017Z,18.30
2019-03-04T06:33:41.407Z,18.30
2019-03-04T06:36:13.812Z,18.30
2019-03-04T06:38:46.204Z,18.30
2019-03-04T06:41:18.608Z,18.30
2019-03-04T06:43:51.022Z,18.30
2019-03-04T06:46:23.358Z,18.30
2019-03-04T06:48:55.738Z,18.40
2019-03-04T06:51:40.535Z,18.30
2019-03-04T06:55:14.826Z,18.40
2019-03-04T06:57:51.339Z,18.40
2019-03-04T07:00:56.569Z,18.40
2019-03-04T07:03:39.679Z,18.30
2019-03-04T07:06:12.141Z,18.30
2019-03-04T07:09:10.308Z,18.30
2019-03-04T07:11:53.693Z,18.30
2019-03-04T07:14:27.151Z,18.30
2019-03-04T07:16:59.663Z,18.30
2019-03-04T07:19:35.422Z,18.30
2019-03-04T07:22:11.165Z,18.30
2019-03-04T07:24:43.710Z,18.30
2019-03-04T07:27:16.112Z,18.30
2019-03-04T07:29:48.500Z,18.20
2019-03-04T07:32:20.890Z,18.20
2019-03-04T07:34:53.283Z,18.20
2019-03-04T07:37:25.688Z,18.20
2019-03-04T07:39:58.073Z,18.10
2019-03-04T07:42:31.316Z,18.10
2019-03-04T07:45:03.847Z,18.10
2019-03-04T07:47:36.252Z,18.10
2019-03-04T07:50:08.826Z,18.10
2019-03-04T07:52:41.172Z,18.10
2019-03-04T07:55:13.579Z,18.10
2019-03-04T07:57:45.995Z,18.10
2019-03-04T08:00:18.379Z,18.10
2019-03-04T08:02:50.780Z,18.10
2019-03-04T08:05:23.149Z,18.10
2019-03-04T08:07:55.658Z,18.10
2019-03-04T08:11:13.702Z,18.10
2019-03-04T08:13:52.463Z,18.10
2019-03-04T08:16:25.908Z,18.10
2019-03-04T08:18:58.317Z,18.10
2019-03-04T08:21:30.737Z,18.10
2019-03-04T08:24:03.141Z,18.10
2019-03-04T08:26:35.515Z,18.10
2019-03-04T08:29:08.003Z,18.10
2019-03-04T08:31:40.381Z,18.10
2019-03-04T08:34:12.780Z,18.10
2019-03-04T08:36:45.172Z,18.10
2019-03-04T08:39:18.454Z,18.10
2019-03-04T08:41:50.832Z,18.10
2019-03-04T08:44:23.246Z,18.00
2019-03-04T08:46:55.629Z,18.00
2019-03-04T08:49:29.103Z,18.00
2019-03-04T08:52:01.498Z,18.00
2019-03-04T08:54:33.998Z,18.00
2019-03-04T08:57:06.375Z,18.00
2019-03-04T08:59:38.840Z,18.00
2019-03-04T09:02:11.217Z,18.00
2019-03-04T09:04:43.619Z,18.00
2019-03-04T09:07:16.009Z,18.10
2019-03-04T09:09:48.402Z,18.10
2019-03-04T09:12:20.786Z,18.10
2019-03-04T09:14:53.262Z,18.10
2019-03-04T09:17:26.759Z,18.10
2019-03-04T09:20:00.322Z,18.10
2019-03-04T09:22:32.673Z,18.10
2019-03-04T09:25:06.702Z,18.10
2019-03-04T09:27:39.146Z,18.10
2019-03-04T09:30:12.159Z,18.10
2019-03-04T09:32:44.470Z,18.10
2019-03-04T09:35:16.947Z,18.10
2019-03-04T09:37:49.384Z,18.00
2019-03-04T09:40:21.810Z,18.00
2019-03-04T09:42:54.289Z,18.00
2019-03-04T09:45:26.725Z,18.00
2019-03-04T09:47:59.047Z,18.00
2019-03-04T09:50:31.559Z,17.90
2019-03-04T09:53:04.140Z,18.00
2019-03-04T09:55:36.536Z,18.00
2019-03-04T09:58:08.919Z,18.00
2019-03-04T10:01:27.087Z,18.00
2019-03-04T10:04:43.119Z,18.00
2019-03-04T10:08:05.035Z,18.00
2019-03-04T10:11:06.820Z,18.10
2019-03-04T10:14:07.743Z,18.10
2019-03-04T10:17:36.879Z,18.10
2019-03-04T10:20:58.298Z,18.20
2019-03-04T10:24:32.744Z,18.20
2019-03-04T10:27:36.134Z,18.20
2019-03-04T10:30:57.538Z,18.30
2019-03-04T10:34:21.650Z,18.30
2019-03-04T10:37:47.171Z,18.30
2019-03-04T10:41:20.230Z,18.30
2019-03-04T10:44:37.926Z,18.20
2019-03-04T10:47:10.658Z,18.10
2019-03-04T10:49:43.038Z,18.10
2019-03-04T10:52:15.403Z,18.00
2019-03-04T10:54:47.783Z,18.00
2019-03-04T10:57:20.193Z,18.00
2019-03-04T10:59:52.568Z,18.00
2019-03-04T11:02:25.007Z,18.00
2019-03-04T11:04:59.062Z,18.00
2019-03-04T11:07:31.452Z,18.00
2019-03-04T11:10:03.847Z,18.00
2019-03-04T11:12:36.330Z,17.90
2019-03-04T11:15:21.607Z,17.90
2019-03-04T11:17:54.539Z,17.90
2019-03-04T11:20:27.103Z,17.80
2019-03-04T11:22:59.588Z,17.80
2019-03-04T11:25:33.010Z,17.80
2019-03-04T11:28:05.409Z,17.80
2019-03-04T11:30:37.879Z,17.80
2019-03-04T11:33:10.283Z,17.90
2019-03-04T11:35:42.665Z,17.90
2019-03-04T11:38:41.746Z,17.90
2019-03-04T11:41:20.459Z,18.00
2019-03-04T11:43:53.004Z,18.10
2019-03-04T11:46:25.464Z,18.10
2019-03-04T11:48:57.850Z,18.20
2019-03-04T11:51:30.270Z,18.20
2019-03-04T11:54:02.659Z,18.20
2019-03-04T11:56:35.128Z,18.30
2019-03-04T11:59:07.532Z,18.40
2019-03-04T12:01:43.091Z,18.40
2019-03-04T12:04:15.476Z,18.40
2019-03-04T12:06:48.955Z,18.50
2019-03-04T12:09:21.402Z,18.50
2019-03-04T12:11:53.798Z,18.50
2019-03-04T12:14:26.252Z,18.50
2019-03-04T12:16:58.730Z,18.60
2019-03-04T12:19:31.224Z,18.60
2019-03-04T12:22:03.627Z,18.60
2019-03-04T12:24:36.067Z,18.60
2019-03-04T12:27:08.470Z,18.60
2019-03-04T12:29:40.842Z,18.60
2019-03-04T12:32:25.120Z,18.60
2019-03-04T12:34:57.500Z,18.50
2019-03-04T12:37:29.910Z,18.50
2019-03-04T12:40:02.354Z,18.50
2019-03-04T12:42:36.428Z,18.50
2019-03-04T12:45:14.841Z,18.50
2019-03-04T12:47:47.319Z,18.50
2019-03-04T12:50:22.882Z,18.50
2019-03-04T12:52:55.455Z,18.50
2019-03-04T12:55:27.829Z,18.40
2019-03-04T12:58:00.227Z,18.40
2019-03-04T13:00:32.714Z,18.40
2019-03-04T13:03:05.115Z,18.40
2019-03-04T13:05:37.559Z,18.40
2019-03-04T13:08:10.199Z,18.40
2019-03-04T13:10:42.594Z,18.40
2019-03-04T13:13:15.064Z,18.40
2019-03-04T13:15:48.962Z,18.30
2019-03-04T13:18:21.381Z,18.30
2019-03-04T13:20:53.767Z,18.30
2019-03-04T13:23:26.164Z,18.30
2019-03-04T13:25:58.547Z,18.20
2019-03-04T13:28:30.966Z,18.20
2019-03-04T13:31:05.699Z,18.20
2019-03-04T13:33:37.609Z,18.20
2019-03-04T13:36:12.076Z,18.20
2019-03-04T13:38:44.508Z,18.20
2019-03-04T13:41:16.870Z,18.20
2019-03-04T13:43:49.304Z,18.20
2019-03-04T13:46:21.681Z,18.20
2019-03-04T13:48:55.689Z,18.20
2019-03-04T13:51:28.265Z,18.20
2019-03-04T13:54:00.685Z,18.20
2019-03-04T13:56:33.050Z,18.20
2019-03-04T13:59:05.516Z,18.20
2019-03-04T14:01:37.890Z,18.20
2019-03-04T14:04:10.295Z,18.10
2019-03-04T14:06:42.668Z,18.10
2019-03-04T14:09:19.911Z,18.10
2019-03-04T14:11:52.293Z,18.10
2019-03-04T14:14:24.700Z,18.00
2019-03-04T14:16:57.205Z,18.00
2019-03-04T14:19:30.647Z,18.00
2019-03-04T14:22:04.166Z,17.90
2019-03-04T14:24:36.541Z,17.90
2019-03-04T14:27:08.957Z,17.90
2019-03-04T14:29:41.287Z,17.80
2019-03-04T14:32:13.713Z,17.80
2019-03-04T14:34:46.109Z,17.80
2019-03-04T14:37:18.472Z,17.80
2019-03-04T14:39:50.864Z,17.70
2019-03-04T14:42:23.232Z,17.70
2019-03-04T14:44:55.728Z,17.70
2019-03-04T14:47:28.124Z,17.70
2019-03-04T14:50:09.611Z,17.60
2019-03-04T14:52:35.725Z,17.60
2019-03-04T14:55:11.616Z,17.50
2019-03-04T14:57:44.147Z,17.50
2019-03-04T15:00:20.824Z,17.50
2019-03-04T15:02:53.200Z,17.40
2019-03-04T15:05:26.005Z,17.40
2019-03-04T15:07:58.380Z,17.40
2019-03-04T15:10:30.774Z,17.30
2019-03-04T15:13:03.330Z,17.30
2019-03-04T15:15:35.771Z,17.30
2019-03-04T15:18:08.096Z,17.30
2019-03-04T15:20:40.731Z,17.30
2019-03-04T15:23:13.195Z,17.20
2019-03-04T15:25:45.586Z,17.20
2019-03-04T15:28:20.317Z,17.20
2019-03-04T15:30:56.036Z,17.20
2019-03-04T15:33:28.504Z,17.20
2019-03-04T15:36:00.901Z,17.20
2019-03-04T15:38:33.301Z,17.10
2019-03-04T15:41:05.756Z,17.10
2019-03-04T15:43:38.207Z,17.10
2019-03-04T15:46:10.542Z,17.00
2019-03-04T15:48:42.923Z,17.10
2019-03-04T15:51:15.260Z,17.00
2019-03-04T15:53:47.641Z,17.00
2019-03-04T15:56:20.052Z,17.00
2019-03-04T15:58:52.441Z,17.00
2019-03-04T16:01:24.770Z,17.10
2019-03-04T16:03:57.169Z,17.00
2019-03-04T16:06:29.554Z,16.80
2019-03-04T16:09:02.034Z,16.90
2019-03-04T16:11:36.048Z,16.90
2019-03-04T16:14:08.495Z,16.90
2019-03-04T16:16:41.158Z,17.00
2019-03-04T16:19:13.580Z,17.00
2019-03-04T16:21:45.981Z,17.00
2019-03-04T16:24:18.358Z,17.00
2019-03-04T16:26:50.758Z,17.00
2019-03-04T16:29:24.110Z,17.00
2019-03-04T16:31:56.502Z,17.00
2019-03-04T16:34:28.875Z,17.00
2019-03-04T16:37:06.899Z,17.00
2019-03-04T16:39:39.283Z,17.00
2019-03-04T16:42:11.679Z,17.00
2019-03-04T16:44:44.066Z,17.00
2019-03-04T16:47:16.572Z,17.00
2019-03-04T16:49:49.023Z,17.00
2019-03-04T16:52:24.581Z,17.00
2019-03-04T16:54:57.450Z,17.00
2019-03-04T16:57:29.940Z,17.00
2019-03-04T17:00:02.777Z,17.00
2019-03-04T17:02:36.892Z,17.00
2019-03-04T17:05:11.804Z,17.00
2019-03-04T17:07:44.278Z,17.00
2019-03-04T17:10:17.165Z,17.00
2019-03-04T17:12:49.553Z,17.00
2019-03-04T17:15:22.053Z,17.00
2019-03-04T17:17:54.535Z,17.00
2019-03-04T17:20:27.015Z,17.00
2019-03-04T17:22:59.513Z,17.00
2019-03-04T17:25:31.882Z,17.00
2019-03-04T17:28:04.290Z,16.90
2019-03-04T17:30:37.264Z,16.90
2019-03-04T17:33:09.670Z,17.00
2019-03-04T17:35:42.133Z,16.90
2019-03-04T17:38:15.588Z,16.90
2019-03-04T17:40:47.961Z,16.90
2019-03-04T17:43:20.432Z,16.80
2019-03-04T17:45:52.876Z,16.80
2019-03-04T17:48:25.372Z,16.80
2019-03-04T17:50:58.862Z,16.80
2019-03-04T17:53:31.288Z,16.80
2019-03-04T17:56:03.667Z,16.70
2019-03-04T17:58:36.132Z,16.70
2019-03-04T18:01:08.503Z,16.70
2019-03-04T18:03:40.981Z,16.70
2019-03-04T18:06:13.366Z,16.70
2019-03-04T18:08:45.835Z,16.60
2019-03-04T18:11:18.192Z,16.60
2019-03-04T18:13:50.525Z,16.60
2019-03-04T18:16:22.900Z,16.60
2019-03-04T18:18:55.375Z,16.60
2019-03-04T18:21:28.037Z,16.60
2019-03-04T18:24:00.449Z,16.60
2019-03-04T18:26:48.921Z,16.60
2019-03-04T18:30:24.684Z,16.60
2019-03-04T18:33:52.778Z,16.60
2019-03-04T18:36:43.776Z,16.60
2019-03-04T18:40:08.091Z,16.60
2019-03-04T18:43:45.340Z,16.50
2019-03-04T18:47:17.729Z,16.50
2019-03-04T18:49:50.209Z,16.40
2019-03-04T18:52:22.708Z,16.40
2019-03-04T18:54:55.117Z,16.40
2019-03-04T18:57:27.591Z,16.40
2019-03-04T18:59:59.988Z,16.40
2019-03-04T19:02:32.382Z,16.40
2019-03-04T19:05:05.087Z,16.40
2019-03-04T19:07:38.133Z,16.40
2019-03-04T19:10:11.006Z,16.30
2019-03-04T19:12:43.392Z,16.30
2019-03-04T19:15:15.980Z,16.30
2019-03-04T19:17:48.437Z,16.30
2019-03-04T19:20:22.850Z,16.30
2019-03-04T19:22:55.226Z,16.20
2019-03-04T19:25:27.697Z,16.20
2019-03-04T19:28:00.088Z,16.20
2019-03-04T19:30:32.504Z,16.20
2019-03-04T19:33:04.943Z,16.20
2019-03-04T19:35:37.352Z,16.20
2019-03-04T19:38:09.792Z,16.20
2019-03-04T19:40:42.807Z,16.20
2019-03-04T19:43:15.173Z,16.20
2019-03-04T19:45:47.587Z,16.20
2019-03-04T19:48:20.144Z,16.20
2019-03-04T19:50:52.640Z,16.20
2019-03-04T19:53:25.060Z,16.20
2019-03-04T19:55:57.539Z,16.20
2019-03-04T19:58:29.919Z,16.20
2019-03-04T20:01:02.397Z,16.10
2019-03-04T20:03:34.845Z,16.10
2019-03-04T20:06:07.501Z,16.10
2019-03-04T20:08:39.958Z,16.10
2019-03-04T20:11:12.557Z,16.10
2019-03-04T20:13:45.014Z,16.10
2019-03-04T20:16:17.677Z,16.10
2019-03-04T20:18:50.105Z,16.10
2019-03-04T20:21:22.682Z,16.10
2019-03-04T20:23:55.210Z,16.10
2019-03-04T20:26:27.609Z,16.10
2019-03-04T20:28:59.993Z,16.10
2019-03-04T20:31:32.455Z,16.10
2019-03-04T20:34:06.029Z,16.00
2019-03-04T20:36:38.517Z,16.00
2019-03-04T20:39:14.976Z,16.00
2019-03-04T20:41:47.463Z,16.00
2019-03-04T20:44:19.915Z,16.00
2019-03-04T20:46:52.328Z,16.00
2019-03-04T20:49:24.716Z,16.00
2019-03-04T20:51:57.129Z,16.00
2019-03-04T20:54:29.511Z,16.00
2019-03-04T20:57:02.916Z,16.00
2019-03-04T20:59:35.360Z,16.00
2019-03-04T21:02:07.825Z,16.00
2019-03-04T21:04:40.395Z,16.00
2019-03-04T21:07:12.737Z,16.00
2019-03-04T21:09:45.118Z,16.00
2019-03-04T21:12:18.465Z,16.00
2019-03-04T21:14:51.150Z,16.00
2019-03-04T21:17:23.620Z,16.00
2019-03-04T21:19:56.077Z,16.00
2019-03-04T21:22:28.551Z,16.00
2019-03-04T21:25:01.002Z,16.00
2019-03-04T21:27:34.664Z,16.00
2019-03-04T21:31:05.699Z,16.00
2019-03-04T21:34:42.132Z,16.00
2019-03-04T21:37:24.911Z,16.00
2019-03-04T21:39:59.839Z,15.90
2019-03-04T21:43:04.490Z,15.90
2019-03-04T21:46:13.314Z,15.90
2019-03-04T21:48:54.793Z,15.80
2019-03-04T21:52:49.329Z,15.80
2019-03-04T21:56:07.518Z,15.80
2019-03-04T21:58:40.083Z,15.80
2019-03-04T22:01:37.835Z,15.80
2019-03-04T22:04:10.312Z,15.70
2019-03-04T22:06:43.055Z,15.70
2019-03-04T22:09:16.535Z,15.70
2019-03-04T22:11:48.991Z,15.70
2019-03-04T22:14:22.566Z,15.60
2019-03-04T22:16:55.033Z,15.60
2019-03-04T22:19:27.531Z,15.60
2019-03-04T22:21:59.882Z,15.60
2019-03-04T22:24:32.435Z,15.60
2019-03-04T22:27:04.940Z,15.60
2019-03-04T22:29:37.278Z,15.60
2019-03-04T22:32:09.656Z,15.60
2019-03-04T22:34:42.120Z,15.60
2019-03-04T22:37:14.502Z,15.60
2019-03-04T22:39:46.912Z,15.60
2019-03-04T22:42:19.276Z,15.60
2019-03-04T22:44:51.668Z,15.60
2019-03-04T22:47:24.066Z,15.60
2019-03-04T22:49:56.531Z,15.50
2019-03-04T22:52:28.941Z,15.50
2019-03-04T22:55:01.430Z,15.50
2019-03-04T22:57:33.838Z,15.50
2019-03-04T23:01:16.657Z,15.50
2019-03-04T23:03:50.733Z,15.50
2019-03-04T23:06:26.779Z,15.50
2019-03-04T23:08:59.232Z,15.50
2019-03-04T23:11:31.866Z,15.50
2019-03-04T23:14:11.564Z,15.50
2019-03-04T23:16:43.963Z,15.50
2019-03-04T23:19:16.346Z,15.60
2019-03-04T23:21:48.860Z,15.60
2019-03-04T23:24:21.676Z,15.60
2019-03-04T23:26:54.087Z,15.60
2019-03-04T23:29:26.579Z,15.50
2019-03-04T23:31:58.975Z,15.50
2019-03-04T23:34:31.353Z,15.50
2019-03-04T23:37:03.752Z,15.60
2019-03-04T23:39:36.162Z,15.60
2019-03-04T23:42:08.582Z,15.60
2019-03-04T23:44:41.015Z,15.60
2019-03-04T23:47:13.406Z,15.60
2019-03-04T23:49:46.861Z,15.70
2019-03-04T23:52:19.220Z,15.70
2019-03-04T23:54:51.605Z,15.70
2019-03-04T23:57:24.006Z,15.70
2019-03-04T23:59:56.387Z,15.70
